Time;durP1;ratioP1;P1;durP2;ratioP2;P2;SDS_P1;SDS_P2;PMS_P1;PMS_P2;Temp;Humidity;BMP_temperature;BMP_pressure;BME280_temperature;BME280_humidity;BME280_pressure;Samples;Min_cycle;Max_cycle;Signal;HPM_P1;HPM_P2
2022/11/28 00:00:34;;;;;;;55.05;27.20;;;;;;;1.55;100.00;101626.08;5119300;56;1140897;-67
2022/11/28 00:05:41;;;;;;;58.07;30.47;;;;;;;1.43;100.00;101620.70;5109279;56;1141233;-66
2022/11/28 00:10:47;;;;;;;64.97;31.17;;;;;;;1.33;100.00;101627.02;5109929;56;1140967;-68
2022/11/28 00:16:01;;;;;;;61.73;30.53;;;;;;;1.25;100.00;101620.66;5082595;56;1141038;-66
2022/11/28 00:21:12;;;;;;;59.73;28.60;;;;;;;1.19;100.00;101619.94;5020411;56;1141060;-67
2022/11/28 00:26:29;;;;;;;67.23;32.50;;;;;;;1.15;100.00;101617.84;5118500;56;1140972;-66
2022/11/28 00:31:42;;;;;;;72.92;32.33;;;;;;;1.18;100.00;101622.14;5118640;56;1140950;-67
2022/11/28 00:36:48;;;;;;;86.37;35.35;;;;;;;1.18;100.00;101615.18;5084818;56;1140983;-69
2022/11/28 00:41:54;;;;;;;60.17;29.00;;;;;;;1.16;100.00;101610.44;5034757;57;1141118;-67
2022/11/28 00:47:00;;;;;;;53.20;26.90;;;;;;;1.15;100.00;101614.38;5034015;57;1140944;-67
2022/11/28 00:52:06;;;;;;;55.13;26.03;;;;;;;1.11;100.00;101615.33;5034578;57;1141038;-69
2022/11/28 00:57:11;;;;;;;56.63;27.47;;;;;;;1.05;100.00;101608.52;5074433;56;1141063;-70
2022/11/28 01:02:17;;;;;;;67.13;28.00;;;;;;;1.01;100.00;101604.25;5118666;56;1140898;-68
2022/11/28 01:07:27;;;;;;;60.95;27.82;;;;;;;0.94;100.00;101602.20;5131735;56;1141223;-68
2022/11/28 01:12:31;;;;;;;49.08;24.80;;;;;;;0.88;100.00;101589.33;5061692;56;1140795;-68
2022/11/28 01:17:38;;;;;;;51.07;26.27;;;;;;;0.82;100.00;101584.23;4997098;57;1140824;-68
2022/11/28 01:22:44;;;;;;;53.33;28.37;;;;;;;0.81;100.00;101581.21;5019643;56;1140770;-66
2022/11/28 01:27:49;;;;;;;50.77;28.77;;;;;;;0.74;100.00;101572.27;4895683;59;1141025;-69
2022/11/28 01:32:56;;;;;;;59.97;29.73;;;;;;;0.70;100.00;101571.02;4878130;58;1141024;-67
2022/11/28 01:38:02;;;;;;;55.20;28.87;;;;;;;0.67;100.00;101558.51;4930314;57;1141067;-65
2022/11/28 01:43:09;;;;;;;59.37;30.20;;;;;;;0.66;100.00;101552.44;5031145;57;1141235;-66
2022/11/28 01:48:28;;;;;;;61.10;30.93;;;;;;;0.64;100.00;101546.84;5031135;57;1140775;-65
2022/11/28 01:53:40;;;;;;;69.83;31.13;;;;;;;0.63;100.00;101541.23;4950043;57;1140790;-66
2022/11/28 01:58:50;;;;;;;61.70;31.83;;;;;;;0.63;100.00;101536.88;4971555;57;1140837;-64
2022/11/28 02:03:58;;;;;;;65.00;30.80;;;;;;;0.63;100.00;101536.88;4949636;57;1140948;-67
2022/11/28 02:09:05;;;;;;;64.63;34.17;;;;;;;0.62;100.00;101532.56;4984616;57;1140973;-68
2022/11/28 02:14:35;;;;;;;66.70;33.03;;;;;;;0.62;100.00;101528.66;4949415;58;1141046;-64
2022/11/28 02:20:17;;;;;;;70.08;33.08;;;;;;;0.62;100.00;101523.89;4987485;57;1141053;-66
2022/11/28 02:25:35;;;;;;;67.43;33.27;;;;;;;0.65;100.00;101522.53;4979815;57;1141111;-64
2022/11/28 02:31:24;;;;;;;71.27;33.97;;;;;;;0.68;100.00;101522.47;4971095;57;1140972;-68
2022/11/28 02:36:42;;;;;;;72.27;35.43;;;;;;;0.65;100.00;101518.19;4991899;57;1141004;-68
2022/11/28 02:41:54;;;;;;;86.33;36.97;;;;;;;0.66;100.00;101518.59;5027269;57;1141093;-66
2022/11/28 02:47:23;;;;;;;73.42;34.27;;;;;;;0.66;100.00;101519.91;5024045;57;1141073;-66
2022/11/28 02:52:36;;;;;;;72.73;36.10;;;;;;;0.64;100.00;101508.66;5003889;58;1140877;-68
2022/11/28 02:57:48;;;;;;;77.15;37.50;;;;;;;0.63;100.00;101511.29;4998310;57;1141209;-66
2022/11/28 03:03:28;;;;;;;77.30;35.20;;;;;;;0.61;100.00;101517.00;5032558;57;1151693;-67
2022/11/28 03:09:03;;;;;;;70.60;36.10;;;;;;;0.58;100.00;101513.16;5033238;56;1141045;-69
2022/11/28 03:14:24;;;;;;;70.97;34.83;;;;;;;0.52;100.00;101510.22;5033011;56;1141100;-68
2022/11/28 03:19:44;;;;;;;72.06;36.90;;;;;;;0.50;100.00;101508.53;5000525;57;1140985;-68
2022/11/28 03:25:06;;;;;;;73.00;38.08;;;;;;;0.48;100.00;101508.56;4919593;57;1140899;-65
2022/11/28 03:30:22;;;;;;;76.13;37.07;;;;;;;0.47;100.00;101500.34;5032750;57;1140949;-70
2022/11/28 03:35:32;;;;;;;77.03;37.70;;;;;;;0.44;100.00;101500.42;5075493;56;1141014;-68
2022/11/28 03:40:42;;;;;;;81.72;38.48;;;;;;;0.45;100.00;101493.48;4951620;58;1140877;-66
2022/11/28 03:45:52;;;;;;;79.50;36.30;;;;;;;0.41;100.00;101499.62;5014053;57;1140965;-67
2022/11/28 03:51:08;;;;;;;73.97;36.87;;;;;;;0.38;100.00;101489.27;4947141;58;1140962;-67
2022/11/28 03:56:18;;;;;;;77.67;37.43;;;;;;;0.38;100.00;101490.57;4951756;57;1140952;-70
2022/11/28 04:01:49;;;;;;;82.97;39.63;;;;;;;0.37;100.00;101483.65;4928953;58;1140940;-65
2022/11/28 04:06:58;;;;;;;86.17;39.07;;;;;;;0.36;100.00;101480.19;4871803;58;1141154;-69
2022/11/28 04:12:11;;;;;;;76.53;36.77;;;;;;;0.37;100.00;101481.91;4881526;58;1140924;-67
2022/11/28 04:17:35;;;;;;;;;;;;;;;0.35;100.00;101475.43;4871648;58;1140832;-67
2022/11/28 04:22:48;;;;;;;75.50;37.23;;;;;;;0.38;100.00;101460.20;4950080;58;974195;-66
2022/11/28 04:27:57;;;;;;;122.00;57.47;;;;;;;0.37;100.00;101457.63;4946630;58;1138822;-69
2022/11/28 04:33:08;;;;;;;149.93;76.07;;;;;;;0.34;100.00;101443.79;4913693;57;1143363;-69
2022/11/28 04:38:14;;;;;;;71.53;34.03;;;;;;;0.39;100.00;101448.91;4926891;58;1143268;-70
2022/11/28 04:43:30;;;;;;;69.17;33.60;;;;;;;0.43;100.00;101436.70;4946306;58;1141045;-68
2022/11/28 04:48:36;;;;;;;68.33;33.67;;;;;;;0.41;100.00;101433.27;4917326;58;1141276;-70
2022/11/28 04:54:04;;;;;;;69.13;33.33;;;;;;;0.38;100.00;101430.73;4922841;58;1140953;-68
2022/11/28 04:59:11;;;;;;;74.03;35.75;;;;;;;0.38;100.00;101432.02;5006539;57;1141019;-68
2022/11/28 05:04:17;;;;;;;104.17;44.67;;;;;;;0.35;100.00;101432.50;5006479;57;1141024;-65
2022/11/28 05:09:23;;;;;;;109.07;47.20;;;;;;;0.35;100.00;101427.73;4987362;57;1143132;-64
2022/11/28 05:14:29;;;;;;;102.47;48.77;;;;;;;0.35;100.00;101427.73;4993445;57;1143234;-65
2022/11/28 05:19:35;;;;;;;106.85;48.45;;;;;;;0.33;100.00;101432.11;5032450;57;1143005;-66
2022/11/28 05:24:40;;;;;;;137.47;64.27;;;;;;;0.33;100.00;101426.91;5011841;57;1142894;-68
2022/11/28 05:29:46;;;;;;;107.45;52.55;;;;;;;0.32;100.00;101419.98;4931842;58;1143505;-67
2022/11/28 05:34:52;;;;;;;81.60;39.10;;;;;;;0.28;100.00;101415.32;5032190;57;1142943;-68
2022/11/28 05:39:58;;;;;;;73.40;36.40;;;;;;;0.27;100.00;101418.81;5011898;57;1141052;-71
2022/11/28 05:45:05;;;;;;;129.53;50.90;;;;;;;0.27;100.00;101412.75;5010735;57;1140976;-67
2022/11/28 05:50:11;;;;;;;78.83;36.70;;;;;;;0.27;100.00;101412.75;5025720;57;1143167;-70
2022/11/28 05:55:17;;;;;;;60.23;30.93;;;;;;;0.24;100.00;101416.70;4891729;57;1140960;-69
2022/11/28 06:00:23;;;;;;;61.13;30.90;;;;;;;0.24;100.00;101411.50;4896378;57;1140951;-66
2022/11/28 06:05:29;;;;;;;63.92;31.15;;;;;;;0.26;100.00;101414.48;4997494;57;1141051;-70
2022/11/28 06:10:37;;;;;;;63.93;29.60;;;;;;;0.19;100.00;101406.39;4884460;58;1140929;-66
2022/11/28 06:15:44;;;;;;;69.20;32.03;;;;;;;0.18;100.00;101402.07;5009921;57;1141166;-66
2022/11/28 06:20:50;;;;;;;65.63;31.53;;;;;;;0.19;100.00;101404.23;4994604;57;1141192;-69
2022/11/28 06:25:57;;;;;;;63.43;30.57;;;;;;;0.17;100.00;101401.66;5030385;57;1141145;-67
2022/11/28 06:31:04;;;;;;;61.07;30.03;;;;;;;0.15;100.00;101406.06;5009507;57;1140859;-70
2022/11/28 06:36:12;;;;;;;61.37;30.30;;;;;;;0.13;100.00;101401.33;4930683;57;1141032;-68
2022/11/28 06:41:21;;;;;;;64.27;30.77;;;;;;;0.10;100.00;101402.69;4902751;58;1141247;-68
2022/11/28 06:46:27;;;;;;;59.90;32.20;;;;;;;0.09;100.00;101402.27;4802563;59;1141024;-71
2022/11/28 06:56:28;;;;;;;55.27;27.27;;;;;;;0.05;100.00;101397.16;5207472;55;98002;-65
2022/11/28 07:01:34;;;;;;;56.98;27.10;;;;;;;-0.04;100.00;101406.02;4958709;57;1146348;-68
2022/11/28 07:06:40;;;;;;;57.33;26.23;;;;;;;-0.06;100.00;101404.73;4917033;57;1143213;-66
2022/11/28 07:11:46;;;;;;;61.35;30.17;;;;;;;-0.06;100.00;101411.68;5031730;55;1143608;-69
2022/11/28 07:16:52;;;;;;;48.43;25.20;;;;;;;-0.07;100.00;101408.23;5039680;54;1143064;-64
2022/11/28 07:21:57;;;;;;;62.50;25.90;;;;;;;-0.04;100.00;101399.52;5039777;54;1143202;-66
2022/11/28 07:27:03;;;;;;;47.30;23.43;;;;;;;0.08;100.00;101386.70;4947975;55;1143094;-68
2022/11/28 07:32:09;;;;;;;44.53;22.57;;;;;;;0.17;100.00;101384.75;4807510;58;1140911;-68
2022/11/28 07:37:15;;;;;;;57.43;23.87;;;;;;;0.36;100.00;101374.81;4871295;57;1140975;-65
2022/11/28 07:42:20;;;;;;;49.27;25.33;;;;;;;0.51;100.00;101375.77;4976319;57;1140968;-66
2022/11/28 07:47:28;;;;;;;54.37;26.07;;;;;;;0.74;100.00;101376.56;4977238;56;1140935;-67
2022/11/28 07:52:33;;;;;;;55.63;28.23;;;;;;;0.92;100.00;101368.73;4946352;57;1141114;-66
2022/11/28 07:57:39;;;;;;;49.67;25.10;;;;;;;1.13;100.00;101369.52;5002788;56;1140892;-64
2022/11/28 08:02:45;;;;;;;57.53;27.05;;;;;;;1.36;100.00;101368.50;4998596;56;1141034;-65
2022/11/28 08:07:51;;;;;;;48.87;25.43;;;;;;;1.55;100.00;101366.67;5035339;57;1141111;-67
2022/11/28 08:12:57;;;;;;;57.93;27.73;;;;;;;1.72;100.00;101365.77;5042757;57;1140860;-68
2022/11/28 08:18:03;;;;;;;61.55;29.45;;;;;;;1.88;100.00;101370.11;5036239;55;1140955;-71
2022/11/28 08:23:08;;;;;;;55.63;27.50;;;;;;;2.02;100.00;101362.75;5036788;54;1141051;-66
2022/11/28 08:28:14;;;;;;;61.80;28.23;;;;;;;2.14;100.00;101361.56;5056199;54;1140859;-68
2022/11/28 08:33:20;;;;;;;56.93;28.57;;;;;;;2.16;100.00;101359.28;5036515;54;1140796;-67
2022/11/28 08:38:26;;;;;;;55.37;27.50;;;;;;;2.18;100.00;101364.46;4975871;54;1141028;-70
2022/11/28 08:43:35;;;;;;;54.54;27.86;;;;;;;2.31;100.00;101361.89;4976224;55;1141085;-67
2022/11/28 08:48:42;;;;;;;56.27;28.87;;;;;;;2.42;100.00;101352.86;5004261;56;1141082;-67
2022/11/28 08:53:47;;;;;;;55.20;26.30;;;;;;;2.50;100.00;101356.52;5035287;57;1140896;-69
2022/11/28 08:58:53;;;;;;;77.53;36.13;;;;;;;2.50;100.00;101357.83;4976575;56;1141228;-68
2022/11/28 09:04:00;;;;;;;58.53;28.47;;;;;;;2.58;100.00;101353.23;5045088;57;1140971;-69
2022/11/28 09:09:05;;;;;;;55.13;27.83;;;;;;;2.59;100.00;101358.01;5024430;56;1140998;-67
2022/11/28 09:14:11;;;;;;;58.27;28.80;;;;;;;2.53;100.00;101352.52;4936373;58;1140874;-63
2022/11/28 09:19:17;;;;;;;52.07;25.60;;;;;;;2.52;100.00;101346.03;5014798;56;1141081;-68
2022/11/28 09:24:23;;;;;;;58.97;30.83;;;;;;;2.51;100.00;101341.26;5027028;56;1141068;-67
2022/11/28 09:29:29;;;;;;;54.47;26.33;;;;;;;2.52;100.00;101342.97;5035811;56;1141021;-64
2022/11/28 09:34:34;;;;;;;51.37;25.47;;;;;;;2.52;100.00;101345.58;5036079;56;1141085;-66
2022/11/28 09:39:41;;;;;;;78.40;34.17;;;;;;;2.58;100.00;101334.95;4975185;56;1141015;-69
2022/11/28 09:44:50;;;;;;;61.40;28.62;;;;;;;2.63;100.00;101330.42;4984366;56;1140813;-67
2022/11/28 09:50:14;;;;;;;51.93;25.13;;;;;;;2.65;100.00;101327.77;5027715;56;1141171;-64
2022/11/28 09:55:33;;;;;;;49.67;25.77;;;;;;;2.66;100.00;101326.41;5040186;56;1141224;-69
2022/11/28 10:00:46;;;;;;;55.70;28.17;;;;;;;2.70;100.00;101316.73;4946358;57;1150235;-69
2022/11/28 10:06:05;;;;;;;48.68;25.27;;;;;;;2.69;100.00;101320.24;4986401;57;1141284;-66
2022/11/28 10:11:26;;;;;;;49.37;25.57;;;;;;;2.68;100.00;101311.55;4973419;57;1140890;-68
2022/11/28 10:17:26;;;;;;;56.13;27.07;;;;;;;2.70;100.00;101302.36;4916052;57;1140796;-65
2022/11/28 10:23:01;;;;;;;50.53;26.10;;;;;;;2.70;100.00;101308.89;4952851;57;1141029;-65
2022/11/28 10:28:18;;;;;;;45.57;24.07;;;;;;;2.71;100.00;101297.09;4951473;57;1141149;-66
2022/11/28 10:33:49;;;;;;;48.20;24.02;;;;;;;2.77;100.00;101292.09;4923927;57;1141066;-65
2022/11/28 10:38:56;;;;;;;61.87;28.67;;;;;;;2.80;100.00;101282.41;4920542;57;1140907;-66
2022/11/28 10:44:06;;;;;;;48.67;23.43;;;;;;;2.86;100.00;101276.59;4847117;59;1141003;-66
2022/11/28 10:49:32;;;;;;;52.47;23.07;;;;;;;2.89;100.00;101273.42;4808739;60;1141089;-68
2022/11/28 10:55:10;;;;;;;45.73;22.73;;;;;;;2.90;100.00;101263.38;4967086;57;1140924;-67
2022/11/28 11:00:18;;;;;;;43.30;22.30;;;;;;;2.99;100.00;101259.59;4996403;57;1140883;-65
2022/11/28 11:05:36;;;;;;;52.73;26.55;;;;;;;3.05;100.00;101253.71;4916519;58;1140965;-70
2022/11/28 11:10:48;;;;;;;52.30;24.25;;;;;;;3.08;100.00;101244.88;4932305;57;1141130;-68
2022/11/28 11:16:09;;;;;;;46.57;23.00;;;;;;;3.13;100.00;101233.82;4914376;57;1141109;-66
2022/11/28 11:21:20;;;;;;;43.73;22.23;;;;;;;3.21;100.00;101233.08;4852233;58;1141000;-68
2022/11/28 11:26:34;;;;;;;51.57;26.20;;;;;;;3.30;100.00;101238.00;4912105;57;1141034;-66
2022/11/28 11:31:42;;;;;;;;;;;;;;;3.43;100.00;101235.78;4959317;58;1141104;-69
2022/11/28 11:36:47;;;;;;;46.25;23.27;;;;;;;3.66;100.00;101233.19;4886278;57;974394;-66
2022/11/28 11:42:03;;;;;;;47.17;24.90;;;;;;;3.85;100.00;101232.86;4872162;57;1138814;-68
2022/11/28 11:47:11;;;;;;;41.17;19.60;;;;;;;4.03;100.00;101230.44;4940452;58;1141120;-68
2022/11/28 11:52:25;;;;;;;41.30;22.47;;;;;;;4.24;100.00;101234.39;4919638;58;1140965;-68
2022/11/28 11:57:41;;;;;;;44.70;24.07;;;;;;;4.26;100.00;101225.16;4944895;57;1141083;-69
2022/11/28 12:03:00;;;;;;;47.43;24.37;;;;;;;4.12;100.00;101227.03;4974007;57;1140998;-66
2022/11/28 12:08:26;;;;;;;52.77;25.40;;;;;;;3.96;100.00;101225.07;4972506;57;1140880;-68
2022/11/28 12:13:33;;;;;;;48.17;25.20;;;;;;;3.83;100.00;101221.59;4950163;56;1140952;-65
2022/11/28 12:18:53;;;;;;;44.57;23.03;;;;;;;3.75;100.00;101218.44;4901160;58;1141048;-64
2022/11/28 12:24:09;;;;;;;47.93;24.30;;;;;;;3.68;100.00;101213.48;4770749;59;1140818;-65
2022/11/28 12:29:46;;;;;;;53.40;26.13;;;;;;;3.64;100.00;101215.39;4769591;58;1141473;-67
2022/11/28 12:35:21;;;;;;;63.93;30.77;;;;;;;3.62;100.00;101211.97;4831647;58;1141172;-66
2022/11/28 12:40:51;;;;;;;55.30;30.23;;;;;;;3.62;100.00;101209.81;4810009;58;1141154;-67
2022/11/28 12:46:04;;;;;;;54.37;25.80;;;;;;;3.54;100.00;101211.39;4833205;58;1141345;-68
2022/11/28 12:51:50;;;;;;;53.10;25.80;;;;;;;3.56;100.00;101210.88;4852128;58;1143062;-67
2022/11/28 12:57:09;;;;;;;52.77;26.43;;;;;;;3.52;100.00;101198.82;4833008;59;1140821;-68
2022/11/28 13:02:48;;;;;;;51.42;25.25;;;;;;;3.51;100.00;101207.13;4828906;58;1140850;-68
2022/11/28 13:08:24;;;;;;;51.63;25.60;;;;;;;3.50;100.00;101203.28;4833390;58;1141057;-66
2022/11/28 13:13:40;;;;;;;52.17;25.83;;;;;;;3.45;100.00;101194.30;4890396;57;1141089;-68
2022/11/28 13:19:07;;;;;;;47.30;24.40;;;;;;;3.45;100.00;101192.13;4947655;58;1141134;-67
2022/11/28 13:24:38;;;;;;;49.87;26.13;;;;;;;3.51;100.00;101189.30;4854804;58;1141237;-67
2022/11/28 13:30:15;;;;;;;55.40;26.70;;;;;;;3.51;100.00;101188.81;4866397;57;1150349;-66
2022/11/28 13:35:21;;;;;;;54.67;26.13;;;;;;;3.46;100.00;101182.93;4812580;58;1141208;-64
2022/11/28 13:40:48;;;;;;;58.57;28.97;;;;;;;3.49;100.00;101185.89;4953743;56;1140888;-66
2022/11/28 13:45:55;;;;;;;63.38;29.05;;;;;;;3.48;100.00;101185.48;4972133;57;1140980;-65
2022/11/28 13:51:05;;;;;;;87.43;44.70;;;;;;;3.42;100.00;101188.31;4971189;56;1141025;-68
2022/11/28 13:56:23;;;;;;;45.23;24.23;;;;;;;3.39;100.00;101185.81;4938147;57;1140987;-64
2022/11/28 14:01:49;;;;;;;98.60;52.93;;;;;;;3.40;100.00;101182.29;4904358;57;1141086;-64
2022/11/28 14:07:04;;;;;;;78.90;39.60;;;;;;;3.41;100.00;101191.84;4803839;58;1141120;-68
2022/11/28 14:12:43;;;;;;;92.30;41.30;;;;;;;3.39;100.00;101188.42;4831603;57;1141066;-65
2022/11/28 14:18:17;;;;;;;55.08;27.73;;;;;;;3.36;100.00;101189.87;4852446;57;1141592;-66
2022/11/28 14:23:42;;;;;;;64.63;29.43;;;;;;;3.31;100.00;101183.95;4788779;59;1141075;-69
2022/11/28 14:28:49;;;;;;;55.33;25.47;;;;;;;3.27;100.00;101186.27;4861617;58;1141186;-66
2022/11/28 14:34:03;;;;;;;56.03;25.93;;;;;;;3.26;100.00;101192.41;4854286;59;1141006;-66
2022/11/28 14:39:19;;;;;;;57.80;27.00;;;;;;;3.24;100.00;101191.16;4931990;58;1140969;-64
2022/11/28 14:44:56;;;;;;;77.87;35.23;;;;;;;3.22;100.00;101185.58;4851528;57;1141079;-65
2022/11/28 14:50:12;;;;;;;133.78;57.45;;;;;;;3.17;100.00;101187.93;4639872;60;1141042;-65
2022/11/28 14:55:24;;;;;;;58.90;28.20;;;;;;;3.10;100.00;101186.88;4759044;59;1143092;-64
2022/11/28 15:00:56;;;;;;;123.03;59.83;;;;;;;3.08;100.00;101184.77;4790529;58;1140939;-67
2022/11/28 15:06:19;;;;;;;59.43;28.17;;;;;;;3.02;100.00;101179.34;4797149;59;1142968;-66
2022/11/28 15:11:57;;;;;;;51.37;24.03;;;;;;;2.96;100.00;101173.46;4829434;58;1140905;-65
2022/11/28 15:17:10;;;;;;;62.43;28.53;;;;;;;2.92;100.00;101172.71;4936757;57;1140845;-65
2022/11/28 15:22:44;;;;;;;62.83;30.03;;;;;;;2.91;100.00;101187.13;4944751;57;1140856;-68
2022/11/28 15:27:50;;;;;;;53.53;24.17;;;;;;;2.84;100.00;101182.59;4858379;57;1140952;-66
2022/11/28 15:32:59;;;;;;;60.90;26.23;;;;;;;2.80;100.00;101184.45;5075673;56;1140868;-64
2022/11/28 15:38:05;;;;;;;52.33;24.37;;;;;;;2.80;100.00;101177.92;4997973;56;1140957;-68
2022/11/28 15:43:14;;;;;;;54.53;26.43;;;;;;;2.80;100.00;101176.62;4925238;57;1140927;-68
2022/11/28 15:48:35;;;;;;;55.90;27.90;;;;;;;2.75;100.00;101181.14;5044477;57;1141299;-64
2022/11/28 15:53:43;;;;;;;54.00;27.53;;;;;;;2.74;100.00;101175.55;4932792;56;1140903;-68
2022/11/28 15:58:51;;;;;;;46.37;24.90;;;;;;;2.72;100.00;101186.95;4928574;58;1140939;-67
2022/11/28 16:04:12;;;;;;;60.53;28.77;;;;;;;2.67;100.00;101177.10;4957538;57;1141043;-66
2022/11/28 16:09:28;;;;;;;57.03;25.50;;;;;;;2.65;100.00;101174.54;4968518;57;1141180;-65
2022/11/28 16:14:39;;;;;;;55.37;26.23;;;;;;;2.67;100.00;101181.02;5019798;56;1141151;-64
2022/11/28 16:19:46;;;;;;;59.83;26.45;;;;;;;2.62;100.00;101180.31;5043558;56;1141116;-67
2022/11/28 16:24:58;;;;;;;56.13;27.13;;;;;;;2.53;100.00;101180.64;5047546;56;1141023;-67
2022/11/28 16:30:26;;;;;;;56.33;27.70;;;;;;;2.52;100.00;101176.32;5027860;56;1140906;-64
2022/11/28 16:35:39;;;;;;;64.77;30.23;;;;;;;2.51;100.00;101187.22;5027280;56;1141186;-68
2022/11/28 16:40:45;;;;;;;60.60;28.17;;;;;;;2.48;100.00;101190.77;5027951;56;1141100;-66
2022/11/28 16:46:08;;;;;;;55.92;26.68;;;;;;;2.44;100.00;101189.16;5042717;56;1141094;-68
2022/11/28 16:51:27;;;;;;;73.83;33.13;;;;;;;2.44;100.00;101181.81;4955122;56;1142638;-67
2022/11/28 16:56:37;;;;;;;283.33;152.37;;;;;;;2.43;100.00;101182.72;4862388;57;1140902;-68
2022/11/28 20:04:07;;;;;;;98.77;37.30;;;;;;;2.68;100.00;101165.30;5279294;54;47542;-63
2022/11/28 20:09:14;;;;;;;66.73;32.23;;;;;;;2.65;100.00;101167.16;5039816;56;1136679;-66
2022/11/28 20:14:21;;;;;;;71.97;31.30;;;;;;;2.63;100.00;101172.88;5065310;56;1141190;-67
2022/11/28 20:19:27;;;;;;;64.70;30.13;;;;;;;2.65;100.00;101169.77;4906120;56;1140945;-65
2022/11/28 20:24:33;;;;;;;78.70;34.30;;;;;;;2.64;100.00;101164.14;5003631;56;1141158;-64
2022/11/28 20:29:39;;;;;;;85.90;34.20;;;;;;;2.65;100.00;101165.85;5044452;57;1140933;-67
2022/11/28 20:34:46;;;;;;;89.73;36.47;;;;;;;2.67;100.00;101161.44;5043776;56;1141036;-65
2022/11/28 20:39:52;;;;;;;76.60;32.77;;;;;;;2.68;100.00;101158.77;5005906;57;1141007;-66
2022/11/28 20:44:58;;;;;;;82.20;35.57;;;;;;;2.68;100.00;101156.61;5081708;56;1140961;-67
2022/11/28 20:50:05;;;;;;;74.73;33.80;;;;;;;2.68;100.00;101151.39;4936244;57;1140912;-67
2022/11/28 20:55:11;;;;;;;67.10;30.33;;;;;;;2.70;100.00;101162.64;4991826;56;1141123;-67
2022/11/28 21:00:17;;;;;;;74.30;31.97;;;;;;;2.69;100.00;101155.70;4941749;56;1140989;-67
2022/11/28 21:05:23;;;;;;;73.33;31.10;;;;;;;2.68;100.00;101160.08;4998698;56;1140995;-67
2022/11/28 21:10:30;;;;;;;63.50;32.97;;;;;;;2.69;100.00;101163.09;5046812;56;1141069;-67
2022/11/28 21:15:44;;;;;;;78.13;40.10;;;;;;;2.71;100.00;101158.67;5002650;56;1141039;-65
2022/11/28 21:20:51;;;;;;;120.80;67.92;;;;;;;2.70;100.00;101158.72;4988904;56;1141142;-66
2022/11/28 21:25:57;;;;;;;76.72;31.85;;;;;;;2.72;100.00;101152.99;5002714;57;1143093;-65
2022/11/28 21:31:09;;;;;;;64.17;31.17;;;;;;;2.72;100.00;101148.63;5036722;57;1140967;-66
2022/11/28 21:36:15;;;;;;;68.10;33.80;;;;;;;2.73;100.00;101150.33;5054695;56;1140846;-69
2022/11/28 21:41:23;;;;;;;69.03;30.53;;;;;;;2.70;100.00;101149.58;5031392;57;1140914;-64
2022/11/28 21:46:29;;;;;;;59.10;27.20;;;;;;;2.69;100.00;101148.72;5085565;56;1141047;-64
2022/11/28 21:51:34;;;;;;;65.57;30.27;;;;;;;2.70;100.00;101145.66;5067106;56;1141033;-67
2022/11/28 21:56:40;;;;;;;59.23;27.83;;;;;;;2.70;100.00;101145.20;5078089;56;1141042;-64
2022/11/28 22:01:46;;;;;;;56.90;25.70;;;;;;;2.67;100.00;101145.31;5017710;56;1140959;-69
2022/11/28 22:06:52;;;;;;;63.77;29.23;;;;;;;2.69;100.00;101146.11;4985235;57;1215758;-69
2022/11/28 22:11:57;;;;;;;57.00;27.48;;;;;;;2.65;100.00;101143.66;5089333;56;1141091;-65
2022/11/28 22:17:03;;;;;;;60.78;28.34;;;;;;;2.68;100.00;101143.55;5100995;56;1141015;-68
2022/11/28 22:22:09;;;;;;;62.20;26.93;;;;;;;2.68;100.00;101140.94;5101070;56;1140926;-68
2022/11/28 22:27:16;;;;;;;59.23;29.50;;;;;;;2.68;100.00;101144.86;5121074;56;1140941;-68
2022/11/28 22:32:22;;;;;;;56.07;26.93;;;;;;;2.67;100.00;101138.78;5100657;56;1141049;-68
2022/11/28 22:37:28;;;;;;;56.27;26.43;;;;;;;2.67;100.00;101143.15;5064822;56;1141183;-65
2022/11/28 22:42:34;;;;;;;59.93;26.60;;;;;;;2.66;100.00;101147.52;5030747;57;1141208;-64
2022/11/28 22:47:40;;;;;;;63.37;27.20;;;;;;;2.62;100.00;101138.53;4912107;58;1140809;-67
2022/11/28 22:52:45;;;;;;;49.60;23.00;;;;;;;2.63;100.00;101135.87;4803770;58;1141009;-69
2022/11/28 22:57:51;;;;;;;54.60;25.90;;;;;;;2.66;100.00;101140.14;5016492;56;1140944;-66
2022/11/28 23:02:57;;;;;;;53.65;24.40;;;;;;;2.64;100.00;101141.49;4972920;57;1141043;-67
2022/11/28 23:08:03;;;;;;;53.50;24.18;;;;;;;2.65;100.00;101143.66;4845694;58;1141038;-66
2022/11/28 23:13:08;;;;;;;50.70;24.60;;;;;;;2.67;100.00;101135.31;4962873;57;1141039;-67
2022/11/28 23:18:16;;;;;;;56.57;25.00;;;;;;;2.69;100.00;101140.89;5054441;56;1141296;-64
2022/11/28 23:23:21;;;;;;;50.00;24.70;;;;;;;2.69;100.00;101140.89;5039171;56;1140929;-70
2022/11/28 23:28:28;;;;;;;54.80;24.73;;;;;;;2.68;100.00;101139.63;5010646;57;1140874;-68
2022/11/28 23:33:34;;;;;;;52.35;23.70;;;;;;;2.69;100.00;101138.73;5010306;57;1141191;-67
2022/11/28 23:38:41;;;;;;;48.63;24.12;;;;;;;2.67;100.00;101136.17;4979467;57;1140946;-67
2022/11/28 23:43:47;;;;;;;43.13;23.10;;;;;;;2.57;100.00;101113.05;5032870;56;1140883;-64
2022/11/28 23:48:54;;;;;;;41.87;22.50;;;;;;;2.70;100.00;101136.07;4940742;57;1140957;-67
2022/11/28 23:54:02;;;;;;;47.60;23.43;;;;;;;2.73;100.00;101131.20;5114350;56;1140889;-64
2022/11/28 23:59:11;;;;;;;48.30;22.15;;;;;;;2.73;100.00;101128.13;5094425;56;1140987;-68
